Williams, Arizona
Current Conditions -  °F | °C
As of 7:57 PM on Friday 24 Oct 2014 (Local Time) from KFLG Reporting Station
Clear Clear  
Wind Chill: 47°   Ceiling: Unl
Heat Index: 47°   Visibility: 10mi
Dew Point: 29°   Wind: 0mph
Humidity: 50%   Direction: NA
Pressure: 30.37"   Gusts: NA
Location:  35.25°N, 112.19°W
Report Text: KFLG 250257Z 00000KT 10SM CLR 08/M02 A3037 RMK AO2 SLP233 T00831017 53008
Loading
Personal Weather Stations






























Interactive Weather Map
Tropical Storm Tracking
New forecast layout! Learn more

10-Day Weather Forecast

Advertisements
Track Severe Weather on mobile